createdAt,value
2023-11-27T00:01:41.513Z,1.55
2023-11-27T00:04:08.148Z,1.30
2023-11-27T00:06:34.602Z,1.52
2023-11-27T00:09:01.046Z,1.60
2023-11-27T00:11:27.466Z,2.08
2023-11-27T00:13:53.839Z,1.75
2023-11-27T00:16:20.348Z,1.67
2023-11-27T00:18:48.038Z,2.13
2023-11-27T00:21:14.883Z,1.60
2023-11-27T00:23:42.786Z,1.90
2023-11-27T00:26:09.160Z,1.63
2023-11-27T00:28:35.578Z,1.85
2023-11-27T00:31:02.120Z,1.45
2023-11-27T00:33:28.674Z,1.48
2023-11-27T00:35:55.095Z,1.80
2023-11-27T00:38:21.530Z,1.63
2023-11-27T00:40:47.896Z,2.30
2023-11-27T00:43:14.388Z,2.05
2023-11-27T00:45:41.188Z,2.00
2023-11-27T00:48:07.950Z,1.63
2023-11-27T00:50:34.620Z,1.60
2023-11-27T00:53:00.995Z,1.88
2023-11-27T00:55:27.455Z,1.70
2023-11-27T00:57:53.877Z,1.92
2023-11-27T01:00:20.632Z,1.50
2023-11-27T01:02:47.189Z,1.77
2023-11-27T01:05:16.546Z,2.30
2023-11-27T01:07:43.123Z,2.00
2023-11-27T01:10:10.769Z,1.55
2023-11-27T01:12:44.221Z,1.92
2023-11-27T01:15:14.833Z,1.52
2023-11-27T01:17:41.571Z,1.55
2023-11-27T01:20:09.582Z,1.90
2023-11-27T01:22:36.899Z,1.60
2023-11-27T01:25:04.203Z,1.80
2023-11-27T01:27:31.839Z,1.48
2023-11-27T01:29:58.321Z,1.60
2023-11-27T01:32:27.858Z,1.85
2023-11-27T01:34:54.350Z,1.75
2023-11-27T01:37:21.219Z,1.17
2023-11-27T01:39:47.990Z,1.20
2023-11-27T01:42:14.521Z,1.88
2023-11-27T01:44:40.924Z,1.33
2023-11-27T01:47:09.119Z,1.95
2023-11-27T01:49:35.727Z,1.70
2023-11-27T01:52:02.899Z,1.48
2023-11-27T01:54:30.762Z,1.58
2023-11-27T01:56:58.842Z,1.95
2023-11-27T01:59:26.038Z,1.83
2023-11-27T02:01:53.124Z,2.13
2023-11-27T02:04:19.897Z,2.03
2023-11-27T02:06:46.363Z,1.83
2023-11-27T02:09:14.564Z,1.98
2023-11-27T02:11:45.370Z,1.92
2023-11-27T02:14:12.025Z,1.88
2023-11-27T02:16:38.543Z,1.63
2023-11-27T02:19:05.015Z,1.48
2023-11-27T02:21:31.412Z,1.63
2023-11-27T02:23:57.804Z,1.70
2023-11-27T02:26:24.157Z,1.60
2023-11-27T02:28:50.544Z,1.70
2023-11-27T02:31:17.281Z,1.70
2023-11-27T02:33:43.794Z,1.55
2023-11-27T02:36:10.463Z,1.95
2023-11-27T02:38:37.227Z,1.60
2023-11-27T02:41:04.898Z,1.92
2023-11-27T02:43:31.288Z,1.70
2023-11-27T02:45:57.851Z,2.20
2023-11-27T02:48:24.717Z,1.70
2023-11-27T02:50:51.197Z,1.60
2023-11-27T02:53:17.889Z,1.95
2023-11-27T02:55:44.382Z,1.73
2023-11-27T02:58:10.783Z,1.48
2023-11-27T03:00:38.650Z,1.70
2023-11-27T03:03:05.475Z,1.75
2023-11-27T03:05:31.849Z,1.70
2023-11-27T03:07:58.409Z,1.88
2023-11-27T03:10:24.834Z,2.03
2023-11-27T03:12:51.535Z,1.95
2023-11-27T03:15:19.499Z,1.42
2023-11-27T03:17:45.913Z,1.67
2023-11-27T03:20:13.226Z,1.92
2023-11-27T03:22:40.822Z,1.90
2023-11-27T03:25:07.658Z,2.08
2023-11-27T03:27:34.052Z,1.70
2023-11-27T03:30:04.660Z,1.67
2023-11-27T03:32:32.408Z,1.65
2023-11-27T03:34:59.290Z,1.77
2023-11-27T03:37:25.727Z,1.42
2023-11-27T03:39:52.234Z,1.70
2023-11-27T03:42:18.916Z,1.83
2023-11-27T03:44:45.288Z,1.95
2023-11-27T03:47:11.653Z,2.20
2023-11-27T03:49:38.272Z,1.83
2023-11-27T03:52:05.191Z,1.73
2023-11-27T03:54:31.836Z,1.20
2023-11-27T03:56:58.213Z,1.58
2023-11-27T03:59:24.872Z,1.52
2023-11-27T04:01:51.576Z,1.55
2023-11-27T04:04:18.138Z,1.85
2023-11-27T04:06:45.905Z,1.52
2023-11-27T04:09:14.391Z,1.60
2023-11-27T04:11:41.071Z,1.63
2023-11-27T04:14:07.794Z,2.38
2023-11-27T04:16:34.362Z,1.85
2023-11-27T04:19:01.014Z,1.75
2023-11-27T04:21:27.438Z,1.80
2023-11-27T04:23:53.913Z,1.75
2023-11-27T04:26:23.353Z,1.67
2023-11-27T04:28:50.529Z,2.17
2023-11-27T04:31:17.074Z,2.33
2023-11-27T04:33:43.576Z,2.20
2023-11-27T04:36:10.546Z,1.77
2023-11-27T04:38:37.390Z,1.90
2023-11-27T04:41:03.948Z,1.55
2023-11-27T04:43:30.398Z,1.60
2023-11-27T04:45:56.855Z,1.60
2023-11-27T04:48:23.543Z,2.28
2023-11-27T04:50:49.962Z,1.67
2023-11-27T04:53:16.376Z,1.60
2023-11-27T04:55:42.912Z,1.75
2023-11-27T04:58:09.330Z,1.55
2023-11-27T05:00:35.791Z,1.90
2023-11-27T05:03:02.329Z,2.03
2023-11-27T05:05:28.726Z,1.80
2023-11-27T05:07:55.473Z,1.42
2023-11-27T05:10:21.970Z,1.50
2023-11-27T05:12:48.570Z,1.90
2023-11-27T05:15:15.265Z,1.80
2023-11-27T05:17:41.861Z,1.58
2023-11-27T05:20:10.451Z,1.65
2023-11-27T05:22:37.611Z,1.58
2023-11-27T05:25:04.848Z,2.40
2023-11-27T05:27:31.287Z,3.53
2023-11-27T05:29:57.797Z,3.05
2023-11-27T05:32:24.231Z,3.05
2023-11-27T05:34:50.571Z,2.20
2023-11-27T05:37:17.066Z,2.28
2023-11-27T05:39:43.965Z,1.90
2023-11-27T05:42:13.451Z,2.08
2023-11-27T05:44:41.329Z,2.85
2023-11-27T05:47:10.625Z,2.70
2023-11-27T05:49:37.111Z,3.45
2023-11-27T05:52:04.419Z,2.40
2023-11-27T05:54:31.008Z,2.20
2023-11-27T05:56:57.434Z,2.40
2023-11-27T05:59:23.858Z,1.85
2023-11-27T06:01:50.290Z,2.13
2023-11-27T06:04:17.122Z,2.50
2023-11-27T06:06:43.619Z,2.10
2023-11-27T06:09:10.039Z,2.38
2023-11-27T06:11:36.527Z,2.45
2023-11-27T06:14:02.902Z,2.30
2023-11-27T06:16:29.483Z,2.33
2023-11-27T06:18:56.229Z,2.20
2023-11-27T06:21:23.786Z,2.33
2023-11-27T06:23:52.693Z,2.40
2023-11-27T06:26:19.538Z,2.88
2023-11-27T06:28:46.122Z,2.60
2023-11-27T06:31:12.764Z,3.38
2023-11-27T06:33:39.402Z,3.38
2023-11-27T06:36:06.560Z,2.40
2023-11-27T06:40:59.461Z,2.60
2023-11-27T06:43:26.078Z,3.17
2023-11-27T06:45:53.499Z,2.67
2023-11-27T06:48:20.822Z,3.03
2023-11-27T06:50:48.417Z,2.67
2023-11-27T06:53:14.988Z,2.55
2023-11-27T06:55:41.331Z,2.38
2023-11-27T06:58:08.691Z,2.67
2023-11-27T07:00:35.128Z,2.20
2023-11-27T07:03:01.869Z,2.25
2023-11-27T07:05:28.260Z,2.90
2023-11-27T07:07:54.719Z,2.70
2023-11-27T07:10:21.118Z,2.83
2023-11-27T07:12:47.533Z,2.53
2023-11-27T07:15:13.942Z,2.50
2023-11-27T07:17:40.521Z,2.72
2023-11-27T07:20:07.832Z,2.80
2023-11-27T07:22:34.302Z,2.72
2023-11-27T07:25:00.785Z,3.05
2023-11-27T07:27:28.188Z,3.55
2023-11-27T07:29:54.872Z,2.55
2023-11-27T07:32:21.384Z,3.92
2023-11-27T07:34:47.741Z,2.17
2023-11-27T07:37:14.206Z,3.42
2023-11-27T07:39:41.014Z,2.92
2023-11-27T07:42:07.891Z,2.67
2023-11-27T07:44:34.384Z,2.45
2023-11-27T07:47:00.996Z,2.15
2023-11-27T07:49:27.449Z,1.75
2023-11-27T07:51:58.980Z,1.63
2023-11-27T07:54:26.003Z,1.60
2023-11-27T07:56:54.167Z,1.50
2023-11-27T07:59:20.696Z,1.65
2023-11-27T08:01:47.414Z,2.13
2023-11-27T08:04:13.917Z,1.55
2023-11-27T08:06:40.372Z,1.90
2023-11-27T08:09:08.480Z,1.50
2023-11-27T08:11:35.550Z,1.15
2023-11-27T08:14:02.131Z,1.20
2023-11-27T08:16:28.902Z,1.20
2023-11-27T08:18:55.347Z,1.27
2023-11-27T08:21:21.918Z,0.73
2023-11-27T08:23:48.805Z,0.90
2023-11-27T08:26:16.265Z,0.93
2023-11-27T08:28:42.728Z,1.02
2023-11-27T08:31:10.142Z,0.73
2023-11-27T08:33:37.329Z,0.47
2023-11-27T08:38:34.302Z,0.77
2023-11-27T08:41:00.789Z,0.40
2023-11-27T08:43:28.259Z,0.80
2023-11-27T08:45:55.252Z,0.73
2023-11-27T08:48:28.478Z,0.50
2023-11-27T08:53:30.475Z,0.52
2023-11-27T08:55:58.642Z,0.73
2023-11-27T08:58:25.155Z,0.57
2023-11-27T09:00:52.513Z,0.95
2023-11-27T09:03:20.140Z,2.88
2023-11-27T09:05:47.403Z,0.30
2023-11-27T09:08:14.883Z,0.77
2023-11-27T09:10:41.465Z,0.70
2023-11-27T09:13:08.866Z,2.92
2023-11-27T09:15:35.775Z,0.98
2023-11-27T09:18:02.838Z,0.55
2023-11-27T09:20:29.640Z,1.15
2023-11-27T09:22:57.809Z,1.20
2023-11-27T09:25:25.354Z,1.95
2023-11-27T09:27:52.191Z,3.20
2023-11-27T09:30:19.469Z,1.40
2023-11-27T09:32:46.364Z,0.63
2023-11-27T09:35:14.125Z,0.50
2023-11-27T09:37:40.626Z,0.65
2023-11-27T09:40:09.959Z,0.50
2023-11-27T09:42:46.329Z,0.50
2023-11-27T09:45:18.060Z,0.50
2023-11-27T09:47:48.743Z,0.38
2023-11-27T09:50:19.557Z,0.30
2023-11-27T09:53:01.195Z,0.52
2023-11-27T09:55:33.294Z,0.40
2023-11-27T09:58:00.852Z,0.22
2023-11-27T10:00:29.042Z,0.40
2023-11-27T10:02:55.737Z,0.20
2023-11-27T10:05:23.467Z,0.30
2023-11-27T10:07:58.241Z,0.77
2023-11-27T10:10:28.902Z,0.40
2023-11-27T10:13:03.351Z,0.38
2023-11-27T10:15:36.020Z,2.08
2023-11-27T10:18:06.125Z,2.45
2023-11-27T10:20:33.212Z,0.90
2023-11-27T10:23:00.236Z,0.47
2023-11-27T10:27:58.868Z,0.20
2023-11-27T10:30:26.626Z,0.22
2023-11-27T10:32:53.531Z,0.30
2023-11-27T10:35:27.139Z,0.25
2023-11-27T10:37:58.135Z,0.77
2023-11-27T10:40:28.080Z,0.40
2023-11-27T10:43:02.790Z,0.25
2023-11-27T10:45:31.207Z,0.30
2023-11-27T10:48:02.685Z,0.30
2023-11-27T10:50:33.417Z,0.32
2023-11-27T10:53:01.102Z,0.30
2023-11-27T10:55:30.404Z,0.20
2023-11-27T10:57:57.118Z,0.30
2023-11-27T11:00:31.010Z,0.30
2023-11-27T11:03:09.691Z,3.47
2023-11-27T11:05:44.138Z,1.33
2023-11-27T11:08:11.038Z,0.45
2023-11-27T11:10:39.482Z,0.88
2023-11-27T11:13:08.987Z,0.45
2023-11-27T11:15:49.398Z,0.32
2023-11-27T11:18:44.632Z,0.30
2023-11-27T11:21:51.474Z,0.40
2023-11-27T11:24:25.314Z,0.95
2023-11-27T11:27:03.379Z,0.32
2023-11-27T11:29:34.198Z,0.30
2023-11-27T11:32:02.852Z,0.45
2023-11-27T11:34:33.820Z,0.45
2023-11-27T11:37:01.640Z,0.40
2023-11-27T11:39:28.355Z,0.30
2023-11-27T11:42:03.739Z,0.40
2023-11-27T11:44:35.375Z,0.28
2023-11-27T11:47:22.780Z,0.32
2023-11-27T11:49:49.307Z,0.50
2023-11-27T11:52:19.635Z,0.47
2023-11-27T11:54:48.850Z,0.55
2023-11-27T11:57:17.549Z,0.57
2023-11-27T11:59:49.605Z,0.52
2023-11-27T12:02:20.291Z,0.60
2023-11-27T12:04:49.472Z,0.30
2023-11-27T12:07:15.979Z,0.50
2023-11-27T12:09:44.913Z,0.20
2023-11-27T12:12:16.064Z,0.30
2023-11-27T12:14:43.696Z,0.20
2023-11-27T12:17:10.416Z,0.32
2023-11-27T12:19:37.252Z,0.30
2023-11-27T12:22:05.719Z,0.43
2023-11-27T12:24:32.102Z,0.57
2023-11-27T12:26:58.475Z,0.25
2023-11-27T12:29:27.225Z,0.28
2023-11-27T12:31:54.598Z,0.63
2023-11-27T12:34:26.945Z,0.22
2023-11-27T12:36:56.208Z,0.22
2023-11-27T12:39:26.641Z,0.40
2023-11-27T12:42:02.816Z,0.20
2023-11-27T12:44:33.083Z,0.28
2023-11-27T12:52:12.467Z,0.30
2023-11-27T12:54:39.281Z,0.30
2023-11-27T12:57:11.689Z,0.40
2023-11-27T12:59:41.860Z,0.30
2023-11-27T13:02:08.495Z,0.35
2023-11-27T13:04:39.111Z,0.20
2023-11-27T13:07:10.421Z,0.50
2023-11-27T13:09:38.708Z,0.40
2023-11-27T13:12:27.560Z,0.30
2023-11-27T13:14:54.218Z,0.43
2023-11-27T13:17:22.103Z,0.28
2023-11-27T13:19:56.867Z,0.68
2023-11-27T13:22:24.588Z,0.40
2023-11-27T13:24:51.980Z,0.43
2023-11-27T13:27:22.005Z,0.50
2023-11-27T13:29:51.179Z,0.50
2023-11-27T13:32:18.663Z,0.85
2023-11-27T13:34:56.408Z,0.45
2023-11-27T13:37:29.391Z,1.00
2023-11-27T13:39:58.658Z,2.63
2023-11-27T13:42:25.883Z,1.05
2023-11-27T13:47:21.426Z,4.43
2023-11-27T13:49:49.864Z,1.02
2023-11-27T13:52:18.444Z,2.08
2023-11-27T13:54:49.981Z,2.67
2023-11-27T13:57:28.295Z,1.20
2023-11-27T13:59:58.140Z,1.98
2023-11-27T14:02:37.907Z,1.08
2023-11-27T14:05:09.034Z,1.40
2023-11-27T14:07:41.991Z,0.57
2023-11-27T14:10:24.017Z,0.60
2023-11-27T14:13:00.630Z,0.68
2023-11-27T14:15:38.298Z,0.85
2023-11-27T14:18:23.739Z,1.00
2023-11-27T14:21:13.966Z,0.90
2023-11-27T14:23:40.463Z,1.52
2023-11-27T14:26:10.216Z,1.60
2023-11-27T14:28:48.740Z,0.52
2023-11-27T14:31:23.525Z,1.73
2023-11-27T14:33:51.994Z,1.13
2023-11-27T14:36:18.730Z,0.43
2023-11-27T14:38:47.229Z,0.52
2023-11-27T14:41:14.335Z,0.70
2023-11-27T14:43:41.054Z,0.40
2023-11-27T14:46:16.338Z,0.75
2023-11-27T14:48:44.087Z,0.30
2023-11-27T14:51:13.703Z,0.75
2023-11-27T14:53:49.516Z,0.32
2023-11-27T14:56:16.249Z,0.40
2023-11-27T14:58:42.676Z,0.88
2023-11-27T15:01:10.542Z,0.47
2023-11-27T15:03:40.815Z,0.80
2023-11-27T15:06:08.769Z,0.90
2023-11-27T15:08:35.199Z,1.30
2023-11-27T15:11:04.299Z,1.90
2023-11-27T15:13:30.881Z,2.15
2023-11-27T15:15:59.297Z,1.08
2023-11-27T15:18:25.840Z,1.10
2023-11-27T15:20:53.246Z,0.40
2023-11-27T15:23:19.728Z,0.40
2023-11-27T15:25:46.692Z,0.30
2023-11-27T15:28:14.582Z,0.30
2023-11-27T15:30:41.032Z,0.30
2023-11-27T15:33:09.182Z,0.50
2023-11-27T15:35:36.212Z,0.40
2023-11-27T15:38:04.161Z,0.40
2023-11-27T15:40:33.885Z,0.45
2023-11-27T15:43:00.495Z,0.30
2023-11-27T15:45:29.181Z,0.35
2023-11-27T15:48:00.231Z,0.20
2023-11-27T15:50:32.208Z,0.50
2023-11-27T15:53:01.568Z,3.45
2023-11-27T15:55:29.658Z,1.10
2023-11-27T15:57:56.170Z,0.50
2023-11-27T16:00:23.284Z,1.02
2023-11-27T16:05:18.784Z,0.30
2023-11-27T16:07:46.325Z,0.63
2023-11-27T16:10:16.949Z,0.77
2023-11-27T16:12:43.990Z,0.52
2023-11-27T16:15:14.403Z,1.13
2023-11-27T16:18:00.972Z,3.47
2023-11-27T16:20:28.217Z,2.70
2023-11-27T16:25:22.776Z,1.40
2023-11-27T16:27:49.659Z,1.02
2023-11-27T16:30:22.424Z,1.30
2023-11-27T16:32:49.770Z,0.93
2023-11-27T16:35:16.541Z,1.30
2023-11-27T16:37:44.082Z,0.77
2023-11-27T16:40:16.052Z,0.70
2023-11-27T16:42:44.173Z,0.82
2023-11-27T16:45:11.509Z,0.55
2023-11-27T16:47:38.346Z,0.80
2023-11-27T16:50:13.673Z,0.40
2023-11-27T16:52:41.190Z,0.70
2023-11-27T16:55:08.827Z,0.80
2023-11-27T16:57:35.349Z,5.43
2023-11-27T17:00:02.017Z,2.50
2023-11-27T17:02:28.628Z,0.93
2023-11-27T17:04:55.252Z,0.93
2023-11-27T17:07:22.993Z,0.65
2023-11-27T17:09:49.450Z,2.00
2023-11-27T17:12:15.990Z,10.63
2023-11-27T17:14:42.760Z,4.82
2023-11-27T17:17:09.342Z,1.33
2023-11-27T17:19:35.974Z,8.18
2023-11-27T17:22:02.386Z,5.13
2023-11-27T17:24:28.797Z,3.33
2023-11-27T17:26:55.202Z,1.75
2023-11-27T17:29:21.609Z,5.25
2023-11-27T17:31:50.182Z,4.90
2023-11-27T17:34:16.839Z,2.08
2023-11-27T17:36:44.227Z,1.90
2023-11-27T17:39:10.620Z,1.50
2023-11-27T17:41:38.005Z,1.38
2023-11-27T17:44:04.598Z,1.75
2023-11-27T17:46:32.306Z,1.23
2023-11-27T17:48:59.982Z,0.60
2023-11-27T17:51:26.700Z,0.60
2023-11-27T17:53:54.301Z,0.82
2023-11-27T17:56:28.253Z,0.50
2023-11-27T17:59:01.129Z,1.42
2023-11-27T18:01:28.389Z,1.95
2023-11-27T18:03:54.936Z,1.10
2023-11-27T18:06:21.340Z,1.52
2023-11-27T18:08:47.830Z,0.73
2023-11-27T18:11:14.182Z,1.00
2023-11-27T18:13:41.996Z,0.63
2023-11-27T18:16:09.620Z,1.58
2023-11-27T18:18:36.082Z,1.55
2023-11-27T18:21:02.639Z,0.63
2023-11-27T18:23:29.074Z,4.97
2023-11-27T18:25:55.427Z,2.10
2023-11-27T18:28:21.817Z,0.80
2023-11-27T18:30:48.262Z,3.05
2023-11-27T18:33:14.748Z,6.38
2023-11-27T18:35:41.674Z,6.65
2023-11-27T18:38:08.875Z,4.63
2023-11-27T18:40:36.437Z,3.67
2023-11-27T18:43:02.987Z,6.20
2023-11-27T18:45:29.418Z,3.20
2023-11-27T18:47:55.884Z,4.90
2023-11-27T18:50:22.411Z,4.88
2023-11-27T18:52:49.587Z,2.88
2023-11-27T18:55:16.225Z,2.78
2023-11-27T18:57:42.625Z,0.75
2023-11-27T19:00:15.090Z,0.82
2023-11-27T19:02:42.204Z,2.17
2023-11-27T19:07:37.143Z,0.88
2023-11-27T19:10:03.989Z,1.02
2023-11-27T19:12:30.453Z,2.55
2023-11-27T19:14:57.196Z,0.35
2023-11-27T19:17:23.667Z,0.70
2023-11-27T19:19:50.568Z,1.45
2023-11-27T19:24:46.673Z,2.40
2023-11-27T19:27:13.300Z,2.00
2023-11-27T19:29:39.819Z,0.57
2023-11-27T19:32:08.149Z,1.00
2023-11-27T19:34:34.699Z,1.83
2023-11-27T19:37:04.594Z,1.23
2023-11-27T19:39:31.756Z,0.88
2023-11-27T19:44:24.488Z,1.90
2023-11-27T19:46:57.443Z,4.53
2023-11-27T19:49:25.743Z,1.88
2023-11-27T19:51:53.965Z,1.40
2023-11-27T19:54:20.554Z,1.23
2023-11-27T19:56:47.376Z,0.90
2023-11-27T19:59:13.993Z,0.70
2023-11-27T20:01:40.599Z,1.08
2023-11-27T20:04:07.284Z,1.00
2023-11-27T20:06:33.989Z,0.82
2023-11-27T20:09:00.495Z,2.55
2023-11-27T20:11:26.911Z,2.63
2023-11-27T20:13:55.359Z,2.58
2023-11-27T20:16:21.904Z,2.05
2023-11-27T20:18:49.754Z,0.73
2023-11-27T20:21:16.853Z,1.00
2023-11-27T20:26:10.168Z,0.35
2023-11-27T20:28:36.570Z,0.50
2023-11-27T20:31:03.322Z,1.13
2023-11-27T20:33:41.050Z,1.42
2023-11-27T20:36:08.165Z,2.08
2023-11-27T20:41:03.981Z,2.17
2023-11-27T20:43:30.684Z,2.90
2023-11-27T20:45:58.378Z,2.35
2023-11-27T20:48:28.198Z,0.60
2023-11-27T20:50:54.996Z,0.55
2023-11-27T20:53:22.011Z,0.68
2023-11-27T20:55:48.845Z,0.40
2023-11-27T20:58:52.494Z,0.60
2023-11-27T21:01:09.391Z,1.23
2023-11-27T21:03:35.930Z,1.40
2023-11-27T21:06:02.412Z,2.75
2023-11-27T21:08:28.852Z,2.10
2023-11-27T21:10:55.393Z,1.65
2023-11-27T21:13:25.168Z,1.15
2023-11-27T21:15:51.947Z,1.15
2023-11-27T21:18:20.231Z,1.25
2023-11-27T21:20:47.082Z,1.10
2023-11-27T21:23:14.422Z,1.45
2023-11-27T21:25:47.073Z,2.70
2023-11-27T21:28:14.558Z,3.40
2023-11-27T21:30:41.383Z,3.45
2023-11-27T21:33:08.201Z,3.33
2023-11-27T21:35:34.747Z,2.97
2023-11-27T21:38:01.131Z,2.50
2023-11-27T21:40:27.760Z,3.45
2023-11-27T21:42:54.256Z,3.15
2023-11-27T21:45:20.835Z,2.72
2023-11-27T21:47:48.414Z,2.58
2023-11-27T21:50:14.944Z,2.60
2023-11-27T21:52:41.454Z,4.25
2023-11-27T21:55:08.314Z,3.22
2023-11-27T21:57:34.815Z,3.15
2023-11-27T22:00:01.640Z,2.83
2023-11-27T22:02:28.521Z,3.10
2023-11-27T22:04:55.094Z,3.65
2023-11-27T22:07:21.568Z,3.10
2023-11-27T22:09:50.736Z,2.70
2023-11-27T22:12:17.149Z,3.20
2023-11-27T22:14:43.643Z,2.85
2023-11-27T22:17:10.109Z,2.58
2023-11-27T22:19:37.203Z,2.47
2023-11-27T22:24:30.132Z,2.63
2023-11-27T22:26:58.374Z,3.13
2023-11-27T22:29:24.800Z,2.70
2023-11-27T22:31:51.898Z,2.50
2023-11-27T22:34:18.849Z,2.20
2023-11-27T22:36:45.968Z,3.33
2023-11-27T22:41:43.820Z,4.25
2023-11-27T22:44:10.789Z,3.47
2023-11-27T22:46:39.314Z,4.70
2023-11-27T22:49:06.409Z,4.45
2023-11-27T22:53:59.508Z,4.75
2023-11-27T22:56:27.351Z,5.38
2023-11-27T22:59:02.885Z,3.80
2023-11-27T23:01:33.773Z,4.47
2023-11-27T23:04:01.465Z,3.90
2023-11-27T23:06:36.294Z,2.97
2023-11-27T23:09:04.611Z,2.10
2023-11-27T23:11:31.006Z,2.65
2023-11-27T23:13:57.584Z,4.13
2023-11-27T23:16:24.122Z,4.45
2023-11-27T23:18:50.613Z,4.90
2023-11-27T23:21:16.993Z,4.18
2023-11-27T23:23:43.970Z,3.75
2023-11-27T23:26:10.469Z,4.22
2023-11-27T23:28:36.892Z,4.05
2023-11-27T23:31:04.683Z,4.13
2023-11-27T23:33:32.296Z,4.15
2023-11-27T23:35:58.823Z,4.13
2023-11-27T23:38:25.274Z,5.45
2023-11-27T23:40:51.738Z,4.20
2023-11-27T23:43:18.382Z,5.78
2023-11-27T23:45:44.823Z,5.38
2023-11-27T23:48:11.261Z,5.38
2023-11-27T23:50:37.750Z,6.18
2023-11-27T23:53:07.392Z,5.35
2023-11-27T23:55:34.543Z,5.60
2023-11-27T23:58:00.935Z,5.97
